createdAt,value
2022-09-10T00:00:54.629Z,100319.47
2022-09-10T00:01:59.438Z,100314.88
2022-09-10T00:03:01.779Z,100306.13
2022-09-10T00:04:06.614Z,100302.91
2022-09-10T00:05:10.118Z,100296.81
2022-09-10T00:06:15.738Z,100296.13
2022-09-10T00:07:18.743Z,100301.59
2022-09-10T00:08:23.386Z,100298.94
2022-09-10T00:09:27.741Z,100290.75
2022-09-10T00:10:29.537Z,100292.44
2022-09-10T00:11:35.378Z,100281.69
2022-09-10T00:12:37.172Z,100288.53
2022-09-10T00:13:42.033Z,100286.38
2022-09-10T00:14:43.823Z,100272.34
2022-09-10T00:15:49.961Z,100271.97
2022-09-10T00:16:51.824Z,100265.88
2022-09-10T00:17:56.171Z,100264.16
2022-09-10T00:18:58.095Z,100266.84
2022-09-10T00:20:02.462Z,100259.34
2022-09-10T00:21:12.500Z,100270.25
2022-09-10T00:22:16.954Z,100262.19
2022-09-10T00:23:19.429Z,100254.38
2022-09-10T00:24:24.223Z,100254.38
2022-09-10T00:25:26.100Z,100247.53
2022-09-10T00:26:34.538Z,100254.44
2022-09-10T00:27:36.591Z,100249.19
2022-09-10T00:28:41.017Z,100243.69
2022-09-10T00:29:42.790Z,100246.13
2022-09-10T00:30:47.694Z,100242.69
2022-09-10T00:31:50.145Z,100239.53
2022-09-10T00:32:54.519Z,100238.44
2022-09-10T00:33:56.974Z,100241.25
2022-09-10T00:35:01.799Z,100235.63
2022-09-10T00:36:06.108Z,100241.84
2022-09-10T00:37:10.789Z,100242.69
2022-09-10T00:38:13.286Z,100237.31
2022-09-10T00:39:20.335Z,100234.16
2022-09-10T00:40:22.457Z,100229.38
2022-09-10T00:41:27.299Z,100234.75
2022-09-10T00:42:29.194Z,100240.75
2022-09-10T00:43:48.687Z,100235.63
2022-09-10T00:45:01.005Z,100242.69
2022-09-10T00:46:05.451Z,100241.59
2022-09-10T00:47:13.418Z,100235.38
2022-09-10T00:48:19.874Z,100241.84
2022-09-10T00:49:24.071Z,100241.00
2022-09-10T00:50:29.398Z,100239.03
2022-09-10T00:51:32.747Z,100248.94
2022-09-10T00:52:39.945Z,100251.50
2022-09-10T00:53:43.129Z,100254.03
2022-09-10T00:54:47.510Z,100249.50
2022-09-10T00:55:50.419Z,100247.09
2022-09-10T00:56:55.122Z,100244.97
2022-09-10T00:57:57.243Z,100244.88
2022-09-10T00:59:01.650Z,100254.63
2022-09-10T01:00:05.933Z,100253.78
2022-09-10T01:01:10.959Z,100248.28
2022-09-10T01:02:13.005Z,100251.81
2022-09-10T01:03:21.474Z,100241.94
2022-09-10T01:04:27.206Z,100253.78
2022-09-10T01:05:31.898Z,100244.88
2022-09-10T01:06:34.014Z,100248.41
2022-09-10T01:07:38.544Z,100228.53
2022-09-10T01:08:40.899Z,100230.25
2022-09-10T01:09:45.267Z,100240.47
2022-09-10T01:10:54.279Z,100244.13
2022-09-10T01:12:17.381Z,100235.09
2022-09-10T01:13:38.202Z,100238.75
2022-09-10T01:14:43.681Z,100238.75
2022-09-10T01:16:04.680Z,100239.53
2022-09-10T01:17:16.076Z,100237.56
2022-09-10T01:18:17.923Z,100237.56
2022-09-10T01:19:37.499Z,100240.13
2022-09-10T01:20:51.672Z,100238.91
2022-09-10T01:22:01.904Z,100230.97
2022-09-10T01:23:17.922Z,100233.66
2022-09-10T01:24:40.986Z,100226.59
2022-09-10T01:25:56.758Z,100233.06
2022-09-10T01:27:19.989Z,100228.19
2022-09-10T01:28:31.117Z,100225.78
2022-09-10T01:29:38.091Z,100223.66
2022-09-10T01:30:41.900Z,100229.31
2022-09-10T01:31:49.836Z,100222.47
2022-09-10T01:33:03.326Z,100218.81
2022-09-10T01:34:15.334Z,100217.09
2022-09-10T01:35:25.299Z,100218.81
2022-09-10T01:36:28.274Z,100216.97
2022-09-10T01:37:33.429Z,100217.84
2022-09-10T01:38:36.173Z,100211.72
2022-09-10T01:39:42.169Z,100214.16
2022-09-10T01:40:44.423Z,100212.34
2022-09-10T01:41:52.837Z,100219.41
2022-09-10T01:43:03.451Z,100223.94
2022-09-10T01:44:12.833Z,100217.72
2022-09-10T01:45:17.858Z,100215.16
2022-09-10T01:46:42.315Z,100217.97
2022-09-10T01:47:44.999Z,100220.53
2022-09-10T01:49:10.090Z,100210.53
2022-09-10T01:50:12.898Z,100211.03
2022-09-10T01:51:20.534Z,100205.41
2022-09-10T01:52:26.369Z,100210.53
2022-09-10T01:53:35.445Z,100205.88
2022-09-10T01:54:42.294Z,100206.16
2022-09-10T01:55:46.763Z,100211.53
2022-09-10T01:56:50.496Z,100212.94
2022-09-10T01:57:57.762Z,100211.53
2022-09-10T01:59:15.002Z,100221.53
2022-09-10T02:00:22.030Z,100213.50
2022-09-10T02:01:29.578Z,100201.06
2022-09-10T02:02:36.549Z,100203.00
2022-09-10T02:03:39.739Z,100203.00
2022-09-10T02:04:46.157Z,100208.13
2022-09-10T02:05:48.768Z,100213.50
2022-09-10T02:06:53.282Z,100209.84
2022-09-10T02:07:59.694Z,100220.47
2022-09-10T02:09:04.251Z,100227.16
2022-09-10T02:10:07.432Z,100217.03
2022-09-10T02:11:17.596Z,100212.38
2022-09-10T02:12:23.970Z,100220.28
2022-09-10T02:13:48.298Z,100214.66
2022-09-10T02:14:58.482Z,100213.69
2022-09-10T02:16:40.433Z,100214.66
2022-09-10T02:17:42.445Z,100215.63
2022-09-10T02:18:47.691Z,100215.41
2022-09-10T02:19:51.649Z,100217.09
2022-09-10T02:20:58.343Z,100213.69
2022-09-10T02:22:01.066Z,100214.53
2022-09-10T02:23:05.475Z,100211.72
2022-09-10T02:24:08.564Z,100212.59
2022-09-10T02:25:13.337Z,100212.47
2022-09-10T02:26:15.239Z,100216.84
2022-09-10T02:27:19.690Z,100218.81
2022-09-10T02:28:21.469Z,100218.81
2022-09-10T02:29:25.826Z,100216.84
2022-09-10T02:30:27.726Z,100219.25
2022-09-10T02:31:32.231Z,100210.63
2022-09-10T02:32:34.345Z,100207.94
2022-09-10T02:33:38.802Z,100208.78
2022-09-10T02:34:40.680Z,100209.91
2022-09-10T02:35:47.823Z,100207.47
2022-09-10T02:36:50.403Z,100211.84
2022-09-10T02:37:54.772Z,100204.66
2022-09-10T02:38:56.947Z,100206.34
2022-09-10T02:40:03.091Z,100201.00
2022-09-10T02:41:04.954Z,100199.28
2022-09-10T02:42:09.634Z,100201.84
2022-09-10T02:43:11.511Z,100203.56
2022-09-10T02:44:16.824Z,100198.19
2022-09-10T02:45:18.667Z,100200.75
2022-09-10T02:46:23.103Z,100193.41
2022-09-10T02:47:25.422Z,100191.72
2022-09-10T02:48:31.320Z,100189.72
2022-09-10T02:49:34.733Z,100189.03
2022-09-10T02:50:39.517Z,100192.56
2022-09-10T02:51:42.432Z,100193.41
2022-09-10T02:52:47.118Z,100195.63
2022-09-10T02:53:50.101Z,100188.06
2022-09-10T02:54:54.505Z,100183.53
2022-09-10T02:55:56.339Z,100182.44
2022-09-10T02:57:01.090Z,100184.25
2022-09-10T02:58:02.938Z,100185.00
2022-09-10T02:59:07.347Z,100183.69
2022-09-10T03:00:10.444Z,100184.66
2022-09-10T03:01:16.817Z,100181.97
2022-09-10T03:02:21.992Z,100178.56
2022-09-10T03:03:28.919Z,100184.53
2022-09-10T03:04:30.716Z,100180.53
2022-09-10T03:05:35.561Z,100181.38
2022-09-10T03:06:38.242Z,100180.41
2022-09-10T03:07:43.040Z,100180.53
2022-09-10T03:08:44.886Z,100178.81
2022-09-10T03:09:49.907Z,100189.19
2022-09-10T03:10:51.756Z,100181.25
2022-09-10T03:11:56.152Z,100175.88
2022-09-10T03:12:58.373Z,100189.44
2022-09-10T03:14:03.089Z,100183.22
2022-09-10T03:15:07.015Z,100183.22
2022-09-10T03:16:13.271Z,100180.28
2022-09-10T03:17:15.068Z,100182.69
2022-09-10T03:18:19.803Z,100183.69
2022-09-10T03:19:21.685Z,100183.69
2022-09-10T03:20:26.059Z,100183.69
2022-09-10T03:21:29.500Z,100184.25
2022-09-10T03:22:35.494Z,100188.78
2022-09-10T03:25:11.871Z,100187.06
2022-09-10T03:26:14.399Z,100187.22
2022-09-10T03:27:20.614Z,100183.94
2022-09-10T03:28:23.942Z,100192.97
2022-09-10T03:29:30.172Z,100197.13
2022-09-10T03:30:33.264Z,100202.34
2022-09-10T03:31:37.921Z,100206.03
2022-09-10T03:32:39.815Z,100198.09
2022-09-10T03:33:46.208Z,100211.41
2022-09-10T03:34:49.479Z,100208.56
2022-09-10T03:35:55.574Z,100211.13
2022-09-10T03:37:04.358Z,100208.56
2022-09-10T03:38:06.172Z,100210.28
2022-09-10T03:39:10.709Z,100219.06
2022-09-10T03:40:12.534Z,100211.00
2022-09-10T03:41:16.957Z,100211.97
2022-09-10T03:42:19.599Z,100219.31
2022-09-10T03:43:24.699Z,100220.03
2022-09-10T03:44:27.800Z,100223.81
2022-09-10T03:45:32.672Z,100215.91
2022-09-10T03:46:34.502Z,100214.22
2022-09-10T03:47:40.982Z,100208.84
2022-09-10T03:48:43.554Z,100209.81
2022-09-10T03:49:48.019Z,100217.25
2022-09-10T03:50:51.368Z,100216.28
2022-09-10T03:51:56.247Z,100212.75
2022-09-10T03:52:59.239Z,100210.19
2022-09-10T03:54:03.727Z,100209.22
2022-09-10T03:55:07.927Z,100210.06
2022-09-10T03:56:12.981Z,100213.59
2022-09-10T03:57:15.783Z,100203.84
2022-09-10T03:58:20.836Z,100216.16
2022-09-10T03:59:22.710Z,100203.97
2022-09-10T04:00:27.170Z,100210.06
2022-09-10T04:01:29.055Z,100209.34
2022-09-10T04:02:33.619Z,100205.91
2022-09-10T04:03:35.462Z,100206.75
2022-09-10T04:04:39.949Z,100204.34
2022-09-10T04:05:44.212Z,100205.47
2022-09-10T04:06:48.904Z,100201.31
2022-09-10T04:07:51.724Z,100199.34
2022-09-10T04:08:57.082Z,100203.00
2022-09-10T04:09:58.956Z,100199.59
2022-09-10T04:11:06.720Z,100201.31
2022-09-10T04:12:08.554Z,100196.78
2022-09-10T04:13:13.235Z,100194.72
2022-09-10T04:14:15.708Z,100199.81
2022-09-10T04:15:20.615Z,100187.63
2022-09-10T04:16:23.498Z,100194.22
2022-09-10T04:17:28.375Z,100192.28
2022-09-10T04:18:32.182Z,100198.63
2022-09-10T04:19:36.576Z,100187.88
2022-09-10T04:20:42.319Z,100193.97
2022-09-10T04:21:48.466Z,100183.38
2022-09-10T04:22:51.513Z,100184.22
2022-09-10T04:23:56.786Z,100179.69
2022-09-10T04:25:00.008Z,100181.53
2022-09-10T04:26:04.689Z,100170.06
2022-09-10T04:27:06.598Z,100163.72
2022-09-10T04:28:11.499Z,100169.09
2022-09-10T04:29:13.654Z,100171.03
2022-09-10T04:30:18.708Z,100166.75
2022-09-10T04:31:21.092Z,100173.72
2022-09-10T04:32:26.922Z,100172.75
2022-09-10T04:33:28.750Z,100177.88
2022-09-10T04:34:33.122Z,100179.81
2022-09-10T04:35:34.992Z,100179.59
2022-09-10T04:36:42.170Z,100177.88
2022-09-10T04:37:44.025Z,100171.91
2022-09-10T04:38:49.065Z,100165.69
2022-09-10T04:39:52.595Z,100172.75
2022-09-10T04:40:57.231Z,100170.59
2022-09-10T04:41:59.334Z,100159.56
2022-09-10T04:43:04.495Z,100156.66
2022-09-10T04:44:07.503Z,100151.16
2022-09-10T04:45:12.807Z,100144.59
2022-09-10T04:46:15.488Z,100156.19
2022-09-10T04:47:21.243Z,100150.09
2022-09-10T04:48:23.447Z,100144.00
2022-09-10T04:49:27.936Z,100139.09
2022-09-10T04:50:30.229Z,100135.72
2022-09-10T04:51:44.814Z,100137.78
2022-09-10T04:52:46.915Z,100134.16
2022-09-10T04:53:51.379Z,100146.47
2022-09-10T04:54:55.060Z,100134.53
2022-09-10T04:55:59.668Z,100133.03
2022-09-10T04:57:01.483Z,100137.94
2022-09-10T04:58:06.341Z,100134.75
2022-09-10T04:59:08.587Z,100135.13
2022-09-10T05:00:14.806Z,100139.09
2022-09-10T05:01:16.967Z,100144.97
2022-09-10T05:02:23.006Z,100152.28
2022-09-10T05:03:24.852Z,100151.06
2022-09-10T05:04:30.697Z,100152.78
2022-09-10T05:05:34.392Z,100151.41
2022-09-10T05:06:39.845Z,100142.25
2022-09-10T05:07:43.972Z,100143.97
2022-09-10T05:08:48.535Z,100141.28
2022-09-10T05:09:50.497Z,100131.63
2022-09-10T05:10:55.681Z,100132.50
2022-09-10T05:11:58.137Z,100140.56
2022-09-10T05:13:02.987Z,100138.38
2022-09-10T05:14:05.976Z,100148.59
2022-09-10T05:15:10.854Z,100152.88
2022-09-10T05:16:12.796Z,100153.47
2022-09-10T05:17:17.825Z,100161.16
2022-09-10T05:18:19.747Z,100160.91
2022-09-10T05:19:24.267Z,100162.38
2022-09-10T05:20:32.563Z,100157.56
2022-09-10T05:21:37.148Z,100164.66
2022-09-10T05:22:40.710Z,100160.66
2022-09-10T05:23:45.514Z,100168.31
2022-09-10T05:24:47.471Z,100170.75
2022-09-10T05:25:52.437Z,100171.25
2022-09-10T05:26:54.351Z,100174.63
2022-09-10T05:28:01.145Z,100186.09
2022-09-10T05:29:03.033Z,100185.13
2022-09-10T05:30:08.202Z,100188.78
2022-09-10T05:31:11.034Z,100196.16
2022-09-10T05:32:16.304Z,100193.09
2022-09-10T05:33:18.264Z,100195.78
2022-09-10T05:34:23.218Z,100191.25
2022-09-10T05:35:26.095Z,100184.44
2022-09-10T05:36:32.024Z,100185.19
2022-09-10T05:37:33.836Z,100184.47
2022-09-10T05:38:40.109Z,100178.97
2022-09-10T05:39:42.968Z,100176.16
2022-09-10T05:40:48.269Z,100180.81
2022-09-10T05:41:52.780Z,100183.13
2022-09-10T05:42:54.602Z,100174.22
2022-09-10T05:44:00.299Z,100170.28
2022-09-10T05:45:02.987Z,100164.81
2022-09-10T05:46:08.447Z,100163.72
2022-09-10T05:47:12.975Z,100167.59
2022-09-10T05:48:14.832Z,100164.94
2022-09-10T05:49:19.231Z,100156.75
2022-09-10T05:50:21.078Z,100161.56
2022-09-10T05:51:28.718Z,100158.13
2022-09-10T05:52:34.263Z,100153.00
2022-09-10T05:53:42.204Z,100152.97
2022-09-10T05:54:44.690Z,100149.78
2022-09-10T05:55:49.731Z,100149.31
2022-09-10T05:56:55.106Z,100144.69
2022-09-10T05:57:57.933Z,100155.53
2022-09-10T05:59:04.021Z,100152.72
2022-09-10T06:00:08.657Z,100146.84
2022-09-10T06:01:18.916Z,100153.91
2022-09-10T06:02:24.155Z,100154.03
2022-09-10T06:03:31.157Z,100155.63
2022-09-10T06:04:38.398Z,100153.13
2022-09-10T06:05:40.254Z,100163.19
2022-09-10T06:06:45.722Z,100159.38
2022-09-10T06:07:48.506Z,100153.75
2022-09-10T06:08:55.814Z,100158.75
2022-09-10T06:10:09.257Z,100159.78
2022-09-10T06:11:17.865Z,100151.34
2022-09-10T06:12:23.751Z,100162.19
2022-09-10T06:13:28.164Z,100166.16
2022-09-10T06:14:31.837Z,100166.94
2022-09-10T06:15:37.950Z,100160.78
2022-09-10T06:16:39.920Z,100170.78
2022-09-10T06:17:45.114Z,100179.81
2022-09-10T06:18:51.162Z,100179.56
2022-09-10T06:19:56.538Z,100180.97
2022-09-10T06:21:04.210Z,100188.59
2022-09-10T06:22:06.366Z,100184.78
2022-09-10T06:23:15.222Z,100177.56
2022-09-10T06:24:17.444Z,100188.06
2022-09-10T06:25:22.782Z,100176.59
2022-09-10T06:26:25.516Z,100188.06
2022-09-10T06:27:33.286Z,100187.28
2022-09-10T06:28:37.122Z,100183.94
2022-09-10T06:29:42.569Z,100181.59
2022-09-10T06:30:45.778Z,100185.97
2022-09-10T06:31:50.396Z,100191.13
2022-09-10T06:32:52.819Z,100182.69
2022-09-10T06:33:57.538Z,100185.84
2022-09-10T06:35:02.983Z,100181.03
2022-09-10T06:36:07.750Z,100177.97
2022-09-10T06:37:09.610Z,100175.75
2022-09-10T06:38:16.102Z,100179.72
2022-09-10T06:39:18.066Z,100180.84
2022-09-10T06:40:27.764Z,100172.91
2022-09-10T06:41:31.182Z,100179.44
2022-09-10T06:42:49.750Z,100178.88
2022-09-10T06:43:54.475Z,100177.03
2022-09-10T06:45:08.339Z,100188.97
2022-09-10T06:47:19.635Z,100174.25
2022-09-10T06:48:38.399Z,100178.94
2022-09-10T06:49:32.047Z,100175.22
2022-09-10T06:50:35.435Z,100183.28
2022-09-10T06:51:39.911Z,100182.03
2022-09-10T06:52:44.268Z,100194.22
2022-09-10T06:53:50.715Z,100190.28
2022-09-10T06:54:54.788Z,100191.00
2022-09-10T06:56:15.209Z,100201.41
2022-09-10T06:57:18.071Z,100201.00
2022-09-10T06:58:23.552Z,100196.06
2022-09-10T06:59:26.056Z,100199.47
2022-09-10T07:00:32.256Z,100197.34
2022-09-10T07:01:38.387Z,100205.44
2022-09-10T07:02:41.044Z,100194.38
2022-09-10T07:03:47.159Z,100198.84
2022-09-10T07:04:49.056Z,100194.44
2022-09-10T07:05:54.948Z,100200.25
2022-09-10T07:07:00.851Z,100190.09
2022-09-10T07:08:05.617Z,100200.72
2022-09-10T07:09:07.460Z,100196.94
2022-09-10T07:10:17.294Z,100206.16
2022-09-10T07:11:20.086Z,100199.59
2022-09-10T07:12:25.150Z,100200.78
2022-09-10T07:13:27.547Z,100197.13
2022-09-10T07:14:33.234Z,100202.25
2022-09-10T07:15:45.661Z,100209.53
2022-09-10T07:16:51.540Z,100205.56
2022-09-10T07:17:55.176Z,100214.81
2022-09-10T07:19:01.284Z,100226.19
2022-09-10T07:20:13.125Z,100222.19
2022-09-10T07:21:27.464Z,100226.34
2022-09-10T07:22:33.088Z,100232.16
2022-09-10T07:23:39.131Z,100229.34
2022-09-10T07:24:42.174Z,100229.06
2022-09-10T07:25:48.035Z,100233.94
2022-09-10T07:27:07.471Z,100238.75
2022-09-10T07:28:15.848Z,100242.44
2022-09-10T07:29:20.508Z,100249.00
2022-09-10T07:30:24.986Z,100255.22
2022-09-10T07:31:28.908Z,100257.75
2022-09-10T07:32:35.786Z,100252.38
2022-09-10T07:33:48.433Z,100258.06
2022-09-10T07:34:52.334Z,100267.00
2022-09-10T07:35:58.484Z,100265.41
2022-09-10T07:37:00.284Z,100256.88
2022-09-10T07:38:06.984Z,100257.72
2022-09-10T07:39:12.835Z,100257.44
2022-09-10T07:40:18.763Z,100257.31
2022-09-10T07:41:20.864Z,100254.16
2022-09-10T07:42:26.376Z,100249.72
2022-09-10T07:43:28.290Z,100260.44
2022-09-10T07:44:33.417Z,100247.97
2022-09-10T07:45:37.129Z,100252.75
2022-09-10T07:46:42.903Z,100251.59
2022-09-10T07:47:48.050Z,100247.69
2022-09-10T07:48:56.729Z,100246.19
2022-09-10T07:49:59.887Z,100245.91
2022-09-10T07:51:05.257Z,100246.50
2022-09-10T07:52:09.841Z,100241.00
2022-09-10T07:53:21.665Z,100244.84
2022-09-10T07:54:24.891Z,100248.13
2022-09-10T07:55:33.082Z,100240.66
2022-09-10T07:56:38.087Z,100242.91
2022-09-10T07:57:42.282Z,100246.94
2022-09-10T07:58:47.871Z,100244.69
2022-09-10T07:59:49.873Z,100249.53
2022-09-10T08:00:57.147Z,100257.75
2022-09-10T08:02:00.218Z,100250.13
2022-09-10T08:03:05.923Z,100253.97
2022-09-10T08:04:10.855Z,100262.91
2022-09-10T08:05:14.306Z,100266.47
2022-09-10T08:06:19.503Z,100264.34
2022-09-10T08:07:23.449Z,100263.94
2022-09-10T08:08:28.047Z,100266.66
2022-09-10T08:09:30.038Z,100267.75
2022-09-10T08:10:34.439Z,100274.56
2022-09-10T08:11:40.014Z,100273.75
2022-09-10T08:12:44.186Z,100259.84
2022-09-10T08:13:50.742Z,100275.75
2022-09-10T08:14:57.811Z,100275.59
2022-09-10T08:16:03.180Z,100275.34
2022-09-10T08:17:05.755Z,100276.03
2022-09-10T08:18:15.482Z,100263.84
2022-09-10T08:19:19.162Z,100274.03
2022-09-10T08:20:26.861Z,100270.38
2022-09-10T08:21:31.958Z,100277.47
2022-09-10T08:22:35.180Z,100280.03
2022-09-10T08:23:39.940Z,100272.69
2022-09-10T08:24:44.421Z,100273.25
2022-09-10T08:25:50.152Z,100272.00
2022-09-10T08:26:55.049Z,100268.03
2022-09-10T08:27:57.264Z,100271.88
2022-09-10T08:29:02.766Z,100275.28
2022-09-10T08:30:04.875Z,100276.97
2022-09-10T08:31:11.759Z,100280.94
2022-09-10T08:32:21.086Z,100281.53
2022-09-10T08:33:25.752Z,100283.81
2022-09-10T08:34:29.607Z,100289.75
2022-09-10T08:35:41.611Z,100293.88
2022-09-10T08:36:43.536Z,100288.94
2022-09-10T08:37:49.083Z,100283.22
2022-09-10T08:38:58.263Z,100292.03
2022-09-10T08:40:05.377Z,100288.06
2022-09-10T08:41:14.220Z,100288.06
2022-09-10T08:42:23.006Z,100287.22
2022-09-10T08:43:32.497Z,100297.16
2022-09-10T08:44:34.786Z,100286.94
2022-09-10T08:45:39.898Z,100285.66
2022-09-10T08:46:41.964Z,100288.06
2022-09-10T08:48:00.550Z,100296.16
2022-09-10T08:49:20.798Z,100287.81
2022-09-10T08:50:33.049Z,100292.88
2022-09-10T08:51:42.501Z,100294.59
2022-09-10T08:52:49.153Z,100289.63
2022-09-10T08:54:04.556Z,100290.34
2022-09-10T08:55:20.778Z,100295.03
2022-09-10T08:56:27.270Z,100294.91
2022-09-10T08:57:40.115Z,100291.22
2022-09-10T08:58:48.443Z,100298.16
2022-09-10T08:59:52.335Z,100296.16
2022-09-10T09:00:59.404Z,100298.84
2022-09-10T09:02:03.850Z,100295.16
2022-09-10T09:03:13.170Z,100297.84
2022-09-10T09:04:17.254Z,100300.41
2022-09-10T09:05:23.666Z,100300.28
2022-09-10T09:06:51.308Z,100295.47
2022-09-10T09:07:54.236Z,100294.00
2022-09-10T09:08:58.625Z,100298.13
2022-09-10T09:10:05.036Z,100301.97
2022-09-10T09:11:13.614Z,100303.28
2022-09-10T09:12:19.045Z,100298.44
2022-09-10T09:13:35.207Z,100300.16
2022-09-10T09:14:59.089Z,100301.69
2022-09-10T09:16:23.440Z,100315.19
2022-09-10T09:17:27.944Z,100307.09
2022-09-10T09:18:50.015Z,100313.31
2022-09-10T09:19:54.660Z,100314.19
2022-09-10T09:21:03.041Z,100303.97
2022-09-10T09:22:23.995Z,100302.97
2022-09-10T09:24:09.322Z,100307.09
2022-09-10T09:25:31.708Z,100312.16
2022-09-10T09:26:35.530Z,100308.34
2022-09-10T09:27:42.070Z,100308.03
2022-09-10T09:28:45.959Z,100315.00
2022-09-10T09:29:58.515Z,100313.00
2022-09-10T09:31:09.290Z,100312.84
2022-09-10T09:32:12.697Z,100301.91
2022-09-10T09:33:17.781Z,100307.31
2022-09-10T09:34:37.006Z,100299.91
2022-09-10T09:35:50.262Z,100291.53
2022-09-10T09:36:53.605Z,100295.94
2022-09-10T09:38:05.978Z,100301.03
2022-09-10T09:39:25.435Z,100292.63
2022-09-10T09:40:39.617Z,100287.09
2022-09-10T09:41:42.951Z,100288.63
2022-09-10T09:42:52.259Z,100290.19
2022-09-10T09:44:12.182Z,100291.06
2022-09-10T09:45:14.499Z,100289.88
2022-09-10T09:46:19.774Z,100283.34
2022-09-10T09:47:24.555Z,100286.75
2022-09-10T09:48:29.375Z,100284.75
2022-09-10T09:49:31.253Z,100288.16
2022-09-10T09:50:36.367Z,100281.91
2022-09-10T09:51:38.192Z,100289.16
2022-09-10T09:52:43.932Z,100287.31
2022-09-10T09:53:51.146Z,100282.75
2022-09-10T09:55:13.662Z,100274.25
2022-09-10T09:56:25.181Z,100284.75
2022-09-10T09:57:27.387Z,100284.19
2022-09-10T09:58:33.814Z,100289.75
2022-09-10T09:59:35.752Z,100292.44
2022-09-10T10:00:40.689Z,100292.44
2022-09-10T10:01:42.813Z,100279.94
2022-09-10T10:02:47.353Z,100285.66
2022-09-10T10:04:02.998Z,100278.69
2022-09-10T10:05:05.622Z,100279.97
2022-09-10T10:06:10.915Z,100270.31
2022-09-10T10:07:12.705Z,100266.16
2022-09-10T10:08:36.002Z,100275.97
2022-09-10T10:09:42.882Z,100270.13
2022-09-10T10:10:44.668Z,100273.88
2022-09-10T10:11:53.823Z,100286.94
2022-09-10T10:12:55.898Z,100281.09
2022-09-10T10:14:00.258Z,100286.06
2022-09-10T10:15:05.460Z,100275.84
2022-09-10T10:16:17.830Z,100290.91
2022-09-10T10:17:27.995Z,100282.66
2022-09-10T10:18:31.873Z,100286.09
2022-09-10T10:19:40.401Z,100274.16
2022-09-10T10:20:42.233Z,100282.63
2022-09-10T10:21:47.458Z,100277.81
2022-09-10T10:22:52.210Z,100274.69
2022-09-10T10:23:53.991Z,100267.97
2022-09-10T10:24:58.368Z,100274.09
2022-09-10T10:26:01.361Z,100273.50
2022-09-10T10:27:05.738Z,100268.78
2022-09-10T10:28:17.176Z,100267.50
2022-09-10T10:29:19.641Z,100266.22
2022-09-10T10:30:25.156Z,100262.22
2022-09-10T10:31:34.554Z,100265.63
2022-09-10T10:32:53.610Z,100262.34
2022-09-10T10:33:58.642Z,100263.06
2022-09-10T10:35:03.331Z,100258.13
2022-09-10T10:36:25.578Z,100253.28
2022-09-10T10:37:33.679Z,100253.59
2022-09-10T10:38:39.547Z,100247.34
2022-09-10T10:39:41.552Z,100250.59
2022-09-10T10:41:05.595Z,100240.50
2022-09-10T10:42:14.030Z,100249.88
2022-09-10T10:43:24.883Z,100243.31
2022-09-10T10:44:32.390Z,100242.72
2022-09-10T10:45:40.693Z,100242.56
2022-09-10T10:47:02.520Z,100240.41
2022-09-10T10:48:10.015Z,100244.81
2022-09-10T10:49:35.089Z,100246.50
2022-09-10T10:50:39.873Z,100252.06
2022-09-10T10:51:44.669Z,100256.63
2022-09-10T10:52:51.462Z,100262.88
2022-09-10T10:54:08.336Z,100260.31
2022-09-10T10:55:33.048Z,100250.91
2022-09-10T10:56:37.575Z,100243.53
2022-09-10T10:57:47.980Z,100254.03
2022-09-10T10:59:12.049Z,100252.91
2022-09-10T11:00:17.014Z,100258.97
2022-09-10T11:01:25.848Z,100241.53
2022-09-10T11:02:33.334Z,100248.03
2022-09-10T11:03:41.986Z,100253.84
2022-09-10T11:04:53.076Z,100255.41
2022-09-10T11:06:05.170Z,100251.69
2022-09-10T11:07:15.638Z,100256.91
2022-09-10T11:08:33.475Z,100242.41
2022-09-10T11:09:46.457Z,100246.81
2022-09-10T11:10:50.504Z,100247.38
2022-09-10T11:11:59.973Z,100239.13
2022-09-10T11:13:04.330Z,100228.03
2022-09-10T11:14:06.516Z,100235.63
2022-09-10T11:15:16.657Z,100232.50
2022-09-10T11:16:22.687Z,100225.31
2022-09-10T11:17:39.401Z,100240.41
2022-09-10T11:18:48.831Z,100239.88
2022-09-10T11:20:26.726Z,100242.88
2022-09-10T11:21:40.982Z,100249.41
2022-09-10T11:22:45.320Z,100245.63
2022-09-10T11:23:52.175Z,100248.75
2022-09-10T11:24:57.906Z,100242.78
2022-09-10T11:26:12.454Z,100228.91
2022-09-10T11:27:21.762Z,100234.34
2022-09-10T11:28:28.829Z,100230.38
2022-09-10T11:29:46.202Z,100224.84
2022-09-10T11:30:49.438Z,100225.56
2022-09-10T11:32:06.310Z,100221.31
2022-09-10T11:33:13.711Z,100212.78
2022-09-10T11:34:21.248Z,100220.16
2022-09-10T11:35:40.151Z,100217.06
2022-09-10T11:37:06.778Z,100218.06
2022-09-10T11:38:20.728Z,100210.25
2022-09-10T11:39:26.975Z,100206.81
2022-09-10T11:40:39.244Z,100209.38
2022-09-10T11:41:44.585Z,100207.53
2022-09-10T11:42:48.012Z,100207.38
2022-09-10T11:43:53.683Z,100202.69
2022-09-10T11:45:04.014Z,100204.41
2022-09-10T11:46:12.708Z,100196.31
2022-09-10T11:47:33.686Z,100198.72
2022-09-10T11:49:13.472Z,100199.44
2022-09-10T11:50:34.315Z,100200.16
2022-09-10T11:51:39.816Z,100202.84
2022-09-10T11:52:42.189Z,100203.13
2022-09-10T11:53:46.717Z,100200.16
2022-09-10T11:54:48.495Z,100207.81
2022-09-10T11:55:58.146Z,100202.97
2022-09-10T11:57:28.902Z,100193.19
2022-09-10T11:58:39.759Z,100204.25
2022-09-10T11:59:50.747Z,100201.41
2022-09-10T12:01:15.496Z,100200.28
2022-09-10T12:02:27.363Z,100198.44
2022-09-10T12:03:42.469Z,100198.28
2022-09-10T12:04:47.631Z,100194.31
2022-09-10T12:06:01.300Z,100203.41
2022-09-10T12:07:21.175Z,100200.72
2022-09-10T12:08:44.350Z,100190.19
2022-09-10T12:10:05.439Z,100192.63
2022-09-10T12:11:09.565Z,100195.03
2022-09-10T12:12:25.802Z,100187.22
2022-09-10T12:13:31.106Z,100184.22
2022-09-10T12:14:35.709Z,100178.41
2022-09-10T12:15:40.195Z,100179.25
2022-09-10T12:16:46.354Z,100189.16
2022-09-10T12:17:52.317Z,100181.06
2022-09-10T12:18:54.135Z,100186.38
2022-09-10T12:20:00.313Z,100184.22
2022-09-10T12:21:04.598Z,100180.06
2022-09-10T12:22:10.040Z,100188.16
2022-09-10T12:23:18.542Z,100184.47
2022-09-10T12:24:27.127Z,100192.03
2022-09-10T12:25:34.670Z,100182.25
2022-09-10T12:26:43.222Z,100184.38
2022-09-10T12:27:49.278Z,100174.84
2022-09-10T12:28:54.071Z,100177.28
2022-09-10T12:29:58.480Z,100171.88
2022-09-10T12:31:01.271Z,100171.25
2022-09-10T12:32:12.411Z,100184.47
2022-09-10T12:33:17.242Z,100174.66
2022-09-10T12:34:22.309Z,100179.81
2022-09-10T12:35:42.273Z,100184.09
2022-09-10T12:36:46.630Z,100176.09
2022-09-10T12:37:51.024Z,100176.47
2022-09-10T12:39:16.587Z,100176.88
2022-09-10T12:40:29.813Z,100182.72
2022-09-10T12:41:31.609Z,100181.38
2022-09-10T12:42:36.988Z,100191.19
2022-09-10T12:43:41.904Z,100172.84
2022-09-10T12:44:47.206Z,100181.94